PWSweather.com
Personal Weather Stations
Station Observations
MORSE1
Massachusetts, West Townsend, MA 01474

MassachusettsWest Townsend, MA 01474

Lat: 42.676, Lon: -71.749

Elevation: 335

Station Type: Rainwise Mk III

Latest ConditionsUpdated 7:09:00 PM EDT Tuesday, Mar 26, 2019
Currently Today's Max Today's Min Today's Average
Temperature 35.0°F1.7°C 46.0°F7.8°C 18.0°F-7.8°C 31.3°F-0.4°C
Dew Point 6.0°F-14.4°C 18.8°F-7.3°C 5.3°F-14.8°C 11.3°F-11.5°C
Winds Calm Calm 4.8 mph -7.7 kmh - - 1.5 mph 2.4 kmh
Wind Gusts 0.8 mph1.3 kmh 8.3 mph13.4 kmh - -
Humidity 29% 87% 21% 50%
Pressure 30.29 in1025.7 mb 30.30 in1026.1 mb 30.09 in1019.0 mb -
Hour Temp Dew Point Humidity Winds Wind Gusts Pressure Precip Precip Rate Daily Precip Total
07:09 PM 35.0°F1.7°C 6.0°F-14.4°C 29% Calm Calm 0.8 mph1.3 kmh 30.29 in1025.7 mb 0.00 in0.0 mm 0.00 in0.0 mm 0.00 in0.0 mm
07:04 PM 36.0°F2.2°C 6.9°F-13.9°C 29% 0.3 mph NNW0.5 kmh NNW 1.5 mph2.4 kmh 30.29 in1025.7 mb 0.00 in0.0 mm 0.00 in0.0 mm 0.00 in0.0 mm
06:59 PM 36.0°F2.2°C 6.1°F-14.4°C 28% 0.1 mph NNW0.2 kmh NNW 1.3 mph2.1 kmh 30.28 in1025.4 mb 0.00 in0.0 mm 0.00 in0.0 mm 0.00 in0.0 mm
06:54 PM 36.5°F2.5°C 7.3°F-13.7°C 29% 0.2 mph WNW0.3 kmh WNW 1.0 mph1.6 kmh 30.28 in1025.4 mb 0.00 in0.0 mm 0.00 in0.0 mm 0.00 in0.0 mm
06:49 PM 37.0°F2.8°C 7.0°F-13.9°C 28% 0.4 mph WNW0.6 kmh WNW 1.5 mph2.4 kmh 30.28 in1025.4 mb 0.00 in0.0 mm 0.00 in0.0 mm 0.00 in0.0 mm
06:44 PM 37.0°F2.8°C 6.2°F-14.3°C 27% 0.8 mph NW1.3 kmh NW 2.0 mph3.2 kmh 30.28 in1025.4 mb 0.00 in0.0 mm 0.00 in0.0 mm 0.00 in0.0 mm
06:39 PM 37.0°F2.8°C 5.3°F-14.8°C 26% 0.7 mph WNW1.1 kmh WNW 1.8 mph2.9 kmh 30.28 in1025.4 mb 0.00 in0.0 mm 0.00 in0.0 mm 0.00 in0.0 mm
06:34 PM 37.5°F3.1°C 5.8°F-14.6°C 26% 0.8 mph NNW1.3 kmh NNW 1.5 mph2.4 kmh 30.28 in1025.4 mb 0.00 in0.0 mm 0.00 in0.0 mm 0.00 in0.0 mm
06:29 PM 38.0°F3.3°C 7.0°F-13.9°C 27% 2.2 mph NNW3.5 kmh NNW 4.5 mph7.2 kmh 30.28 in1025.4 mb 0.00 in0.0 mm 0.00 in0.0 mm 0.00 in0.0 mm
06:24 PM 38.0°F3.3°C 6.2°F-14.3°C 26% 1.5 mph WNW2.4 kmh WNW 3.0 mph4.8 kmh 30.27 in1025.1 mb 0.00 in0.0 mm 0.00 in0.0 mm 0.00 in0.0 mm
06:19 PM 38.0°F3.3°C 6.2°F-14.3°C 26% 1.4 mph NW2.3 kmh NW 2.8 mph4.5 kmh 30.27 in1025.1 mb 0.00 in0.0 mm 0.00 in0.0 mm 0.00 in0.0 mm
06:14 PM 38.0°F3.3°C 6.2°F-14.3°C 26% 1.7 mph NNE2.7 kmh NNE 3.3 mph5.3 kmh 30.27 in1025.1 mb 0.00 in0.0 mm 0.00 in0.0 mm 0.00 in0.0 mm
06:09 PM 39.0°F3.9°C 7.1°F-13.8°C 26% 3.8 mph NW6.1 kmh NW 5.8 mph9.3 kmh 30.27 in1025.1 mb 0.00 in0.0 mm 0.00 in0.0 mm 0.00 in0.0 mm
06:04 PM 38.9°F3.8°C 6.1°F-14.4°C 25% 3.0 mph NNW4.8 kmh NNW 4.8 mph7.7 kmh 30.27 in1025.1 mb 0.00 in0.0 mm 0.00 in0.0 mm 0.00 in0.0 mm
05:59 PM 39.0°F3.9°C 6.2°F-14.3°C 25% 2.4 mph NW3.9 kmh NW 4.0 mph6.4 kmh 30.27 in1025.1 mb 0.00 in0.0 mm 0.00 in0.0 mm 0.00 in0.0 mm
05:54 PM 39.0°F3.9°C 6.2°F-14.3°C 25% 1.8 mph NW2.9 kmh NW 3.5 mph5.6 kmh 30.26 in1024.7 mb 0.00 in0.0 mm 0.00 in0.0 mm 0.00 in0.0 mm
05:49 PM 39.4°F4.1°C 6.5°F-14.2°C 25% 2.7 mph WNW4.3 kmh WNW 5.3 mph8.5 kmh 30.26 in1024.7 mb 0.00 in0.0 mm 0.00 in0.0 mm 0.00 in0.0 mm
05:44 PM 40.0°F4.4°C 7.1°F-13.8°C 25% 3.0 mph NW4.8 kmh NW 5.5 mph8.9 kmh 30.26 in1024.7 mb 0.00 in0.0 mm 0.00 in0.0 mm 0.00 in0.0 mm
05:39 PM 40.0°F4.4°C 6.2°F-14.3°C 24% 1.8 mph N2.9 kmh N 3.0 mph4.8 kmh 30.26 in1024.7 mb 0.00 in0.0 mm 0.00 in0.0 mm 0.00 in0.0 mm
05:34 PM 41.0°F5.0°C 6.1°F-14.4°C 23% 2.7 mph WSW4.3 kmh WSW 5.5 mph8.9 kmh 30.26 in1024.7 mb 0.00 in0.0 mm 0.00 in0.0 mm 0.00 in0.0 mm
05:29 PM 42.0°F5.6°C 6.9°F-13.9°C 23% 1.8 mph NW2.9 kmh NW 4.5 mph7.2 kmh 30.26 in1024.7 mb 0.00 in0.0 mm 0.00 in0.0 mm 0.00 in0.0 mm
05:24 PM 43.0°F6.1°C 7.8°F-13.4°C 23% 3.0 mph NNW4.8 kmh NNW 5.0 mph8.0 kmh 30.26 in1024.7 mb 0.00 in0.0 mm 0.00 in0.0 mm 0.00 in0.0 mm
05:19 PM 43.4°F6.3°C 8.1°F-13.3°C 23% 2.2 mph N3.5 kmh N 5.3 mph8.5 kmh 30.25 in1024.4 mb 0.00 in0.0 mm 0.00 in0.0 mm 0.00 in0.0 mm
05:14 PM 44.0°F6.7°C 8.6°F-13.0°C 23% 2.5 mph NNW4.0 kmh NNW 4.5 mph7.2 kmh 30.25 in1024.4 mb 0.00 in0.0 mm 0.00 in0.0 mm 0.00 in0.0 mm
05:09 PM 43.0°F6.1°C 8.7°F-12.9°C 24% 3.3 mph NW5.3 kmh NW 5.5 mph8.9 kmh 30.25 in1024.4 mb 0.00 in0.0 mm 0.00 in0.0 mm 0.00 in0.0 mm
05:04 PM 43.0°F6.1°C 8.7°F-12.9°C 24% 1.0 mph NW1.6 kmh NW 2.8 mph4.5 kmh 30.25 in1024.4 mb 0.00 in0.0 mm 0.00 in0.0 mm 0.00 in0.0 mm
04:59 PM 42.0°F5.6°C 7.9°F-13.4°C 24% 2.5 mph NW4.0 kmh NW 4.5 mph7.2 kmh 30.25 in1024.4 mb 0.00 in0.0 mm 0.00 in0.0 mm 0.00 in0.0 mm
04:54 PM 42.0°F5.6°C 7.9°F-13.4°C 24% 3.4 mph NW5.5 kmh NW 5.5 mph8.9 kmh 30.25 in1024.4 mb 0.00 in0.0 mm 0.00 in0.0 mm 0.00 in0.0 mm
04:49 PM 41.0°F5.0°C 7.0°F-13.9°C 24% 1.3 mph N2.1 kmh N 3.5 mph5.6 kmh 30.25 in1024.4 mb 0.00 in0.0 mm 0.00 in0.0 mm 0.00 in0.0 mm
04:44 PM 41.0°F5.0°C 7.0°F-13.9°C 24% 1.5 mph NW2.4 kmh NW 3.0 mph4.8 kmh 30.25 in1024.4 mb 0.00 in0.0 mm 0.00 in0.0 mm 0.00 in0.0 mm
04:39 PM 41.0°F5.0°C 7.0°F-13.9°C 24% 2.7 mph NW4.3 kmh NW 4.8 mph7.7 kmh 30.25 in1024.4 mb 0.00 in0.0 mm 0.00 in0.0 mm 0.00 in0.0 mm
04:34 PM 41.0°F5.0°C 7.0°F-13.9°C 24% 3.3 mph NNW5.3 kmh NNW 5.8 mph9.3 kmh 30.25 in1024.4 mb 0.00 in0.0 mm 0.00 in0.0 mm 0.00 in0.0 mm
04:29 PM 41.0°F5.0°C 7.0°F-13.9°C 24% 2.4 mph WNW3.9 kmh WNW 5.0 mph8.0 kmh 30.25 in1024.4 mb 0.00 in0.0 mm 0.00 in0.0 mm 0.00 in0.0 mm
04:24 PM 41.0°F5.0°C 7.0°F-13.9°C 24% 2.6 mph WNW4.2 kmh WNW 5.3 mph8.5 kmh 30.25 in1024.4 mb 0.00 in0.0 mm 0.00 in0.0 mm 0.00 in0.0 mm
04:19 PM 41.0°F5.0°C 7.0°F-13.9°C 24% 2.0 mph NW3.2 kmh NW 3.8 mph6.1 kmh 30.25 in1024.4 mb 0.00 in0.0 mm 0.00 in0.0 mm 0.00 in0.0 mm
04:14 PM 42.0°F5.6°C 6.9°F-13.9°C 23% 3.6 mph N5.8 kmh N 7.8 mph12.6 kmh 30.25 in1024.4 mb 0.00 in0.0 mm 0.00 in0.0 mm 0.00 in0.0 mm
04:09 PM 42.0°F5.6°C 6.9°F-13.9°C 23% 2.0 mph N3.2 kmh N 4.5 mph7.2 kmh 30.25 in1024.4 mb 0.00 in0.0 mm 0.00 in0.0 mm 0.00 in0.0 mm
04:04 PM 43.0°F6.1°C 7.8°F-13.4°C 23% 2.5 mph NW4.0 kmh NW 5.0 mph8.0 kmh 30.25 in1024.4 mb 0.00 in0.0 mm 0.00 in0.0 mm 0.00 in0.0 mm
03:59 PM 44.0°F6.7°C 7.6°F-13.6°C 22% 1.6 mph W2.6 kmh W 3.0 mph4.8 kmh 30.25 in1024.4 mb 0.00 in0.0 mm 0.00 in0.0 mm 0.00 in0.0 mm
03:54 PM 45.0°F7.2°C 8.5°F-13.1°C 22% 1.8 mph WSW2.9 kmh WSW 3.5 mph5.6 kmh 30.25 in1024.4 mb 0.00 in0.0 mm 0.00 in0.0 mm 0.00 in0.0 mm
03:49 PM 46.0°F7.8°C 9.3°F-12.6°C 22% 4.6 mph NNE7.4 kmh NNE 7.0 mph11.3 kmh 30.25 in1024.4 mb 0.00 in0.0 mm 0.00 in0.0 mm 0.00 in0.0 mm
03:44 PM 46.0°F7.8°C 8.3°F-13.2°C 21% 2.9 mph NNW4.7 kmh NNW 6.0 mph9.7 kmh 30.25 in1024.4 mb 0.00 in0.0 mm 0.00 in0.0 mm 0.00 in0.0 mm
03:39 PM 46.0°F7.8°C 8.3°F-13.2°C 21% 2.0 mph NE3.2 kmh NE 3.8 mph6.1 kmh 30.25 in1024.4 mb 0.00 in0.0 mm 0.00 in0.0 mm 0.00 in0.0 mm
03:34 PM 45.0°F7.2°C 7.4°F-13.7°C 21% 2.9 mph NNW4.7 kmh NNW 4.8 mph7.7 kmh 30.25 in1024.4 mb 0.00 in0.0 mm 0.00 in0.0 mm 0.00 in0.0 mm
03:29 PM 45.0°F7.2°C 7.4°F-13.7°C 21% 3.7 mph WNW6.0 kmh WNW 6.8 mph10.9 kmh 30.25 in1024.4 mb 0.00 in0.0 mm 0.00 in0.0 mm 0.00 in0.0 mm
03:24 PM 45.0°F7.2°C 7.4°F-13.7°C 21% 2.2 mph ENE3.5 kmh ENE 4.8 mph7.7 kmh 30.25 in1024.4 mb 0.00 in0.0 mm 0.00 in0.0 mm 0.00 in0.0 mm
03:19 PM 43.9°F6.6°C 6.5°F-14.2°C 21% 2.7 mph NNW4.3 kmh NNW 5.8 mph9.3 kmh 30.25 in1024.4 mb 0.00 in0.0 mm 0.00 in0.0 mm 0.00 in0.0 mm
03:14 PM 43.9°F6.6°C 6.5°F-14.2°C 21% 4.4 mph NW7.1 kmh NW 6.8 mph10.9 kmh 30.25 in1024.4 mb 0.00 in0.0 mm 0.00 in0.0 mm 0.00 in0.0 mm
03:09 PM 44.0°F6.7°C 7.6°F-13.6°C 22% 3.3 mph N5.3 kmh N 5.0 mph8.0 kmh 30.25 in1024.4 mb 0.00 in0.0 mm 0.00 in0.0 mm 0.00 in0.0 mm
03:04 PM 44.0°F6.7°C 7.6°F-13.6°C 22% 1.9 mph NNE3.1 kmh NNE 3.8 mph6.1 kmh 30.25 in1024.4 mb 0.00 in0.0 mm 0.00 in0.0 mm 0.00 in0.0 mm
02:59 PM 44.0°F6.7°C 7.6°F-13.6°C 22% 3.7 mph N6.0 kmh N 6.8 mph10.9 kmh 30.26 in1024.7 mb 0.00 in0.0 mm 0.00 in0.0 mm 0.00 in0.0 mm
02:54 PM 44.0°F6.7°C 7.6°F-13.6°C 22% 2.5 mph N4.0 kmh N 5.0 mph8.0 kmh 30.26 in1024.7 mb 0.00 in0.0 mm 0.00 in0.0 mm 0.00 in0.0 mm
02:49 PM 44.0°F6.7°C 7.6°F-13.6°C 22% 2.6 mph NNE4.2 kmh NNE 5.0 mph8.0 kmh 30.26 in1024.7 mb 0.00 in0.0 mm 0.00 in0.0 mm 0.00 in0.0 mm
02:44 PM 45.0°F7.2°C 8.5°F-13.1°C 22% 3.0 mph NE4.8 kmh NE 6.0 mph9.7 kmh 30.26 in1024.7 mb 0.00 in0.0 mm 0.00 in0.0 mm 0.00 in0.0 mm
02:39 PM 45.0°F7.2°C 7.4°F-13.7°C 21% 1.9 mph NE3.1 kmh NE 4.0 mph6.4 kmh 30.26 in1024.7 mb 0.00 in0.0 mm 0.00 in0.0 mm 0.00 in0.0 mm
02:34 PM 45.0°F7.2°C 7.4°F-13.7°C 21% 1.9 mph NNW3.1 kmh NNW 4.0 mph6.4 kmh 30.26 in1024.7 mb 0.00 in0.0 mm 0.00 in0.0 mm 0.00 in0.0 mm
02:29 PM 45.0°F7.2°C 7.4°F-13.7°C 21% 4.2 mph NNW6.8 kmh NNW 7.3 mph11.7 kmh 30.26 in1024.7 mb 0.00 in0.0 mm 0.00 in0.0 mm 0.00 in0.0 mm
02:24 PM 45.0°F7.2°C 7.4°F-13.7°C 21% 2.4 mph NNW3.9 kmh NNW 5.0 mph8.0 kmh 30.26 in1024.7 mb 0.00 in0.0 mm 0.00 in0.0 mm 0.00 in0.0 mm
02:19 PM 45.0°F7.2°C 7.4°F-13.7°C 21% 2.6 mph N4.2 kmh N 5.3 mph8.5 kmh 30.26 in1024.7 mb 0.00 in0.0 mm 0.00 in0.0 mm 0.00 in0.0 mm
02:14 PM 45.0°F7.2°C 8.5°F-13.1°C 22% 1.3 mph NNE2.1 kmh NNE 2.8 mph4.5 kmh 30.26 in1024.7 mb 0.00 in0.0 mm 0.00 in0.0 mm 0.00 in0.0 mm
02:09 PM 44.0°F6.7°C 8.6°F-13.0°C 23% 3.2 mph NW5.1 kmh NW 5.0 mph8.0 kmh 30.26 in1024.7 mb 0.00 in0.0 mm 0.00 in0.0 mm 0.00 in0.0 mm
02:04 PM 44.0°F6.7°C 7.6°F-13.6°C 22% 1.8 mph NW2.9 kmh NW 4.3 mph6.9 kmh 30.26 in1024.7 mb 0.00 in0.0 mm 0.00 in0.0 mm 0.00 in0.0 mm
01:59 PM 44.0°F6.7°C 7.6°F-13.6°C 22% 4.0 mph NNW6.4 kmh NNW 7.5 mph12.1 kmh 30.26 in1024.7 mb 0.00 in0.0 mm 0.00 in0.0 mm 0.00 in0.0 mm
01:54 PM 43.5°F6.4°C 7.2°F-13.8°C 22% 2.9 mph N4.7 kmh N 6.3 mph10.1 kmh 30.26 in1024.7 mb 0.00 in0.0 mm 0.00 in0.0 mm 0.00 in0.0 mm
01:49 PM 42.0°F5.6°C 7.9°F-13.4°C 24% 3.0 mph NW4.8 kmh NW 5.5 mph8.9 kmh 30.27 in1025.1 mb 0.00 in0.0 mm 0.00 in0.0 mm 0.00 in0.0 mm
01:44 PM 42.0°F5.6°C 7.9°F-13.4°C 24% 2.2 mph N3.5 kmh N 4.0 mph6.4 kmh 30.27 in1025.1 mb 0.00 in0.0 mm 0.00 in0.0 mm 0.00 in0.0 mm
01:39 PM 41.0°F5.0°C 7.0°F-13.9°C 24% 2.9 mph N4.7 kmh N 6.3 mph10.1 kmh 30.27 in1025.1 mb 0.00 in0.0 mm 0.00 in0.0 mm 0.00 in0.0 mm
01:34 PM 40.0°F4.4°C 6.2°F-14.3°C 24% 3.1 mph NNW5.0 kmh NNW 5.5 mph8.9 kmh 30.26 in1024.7 mb 0.00 in0.0 mm 0.00 in0.0 mm 0.00 in0.0 mm
01:29 PM 40.0°F4.4°C 6.2°F-14.3°C 24% 3.9 mph NE6.3 kmh NE 6.0 mph9.7 kmh 30.26 in1024.7 mb 0.00 in0.0 mm 0.00 in0.0 mm 0.00 in0.0 mm
01:24 PM 40.0°F4.4°C 6.2°F-14.3°C 24% 3.2 mph NE5.1 kmh NE 6.3 mph10.1 kmh 30.27 in1025.1 mb 0.00 in0.0 mm 0.00 in0.0 mm 0.00 in0.0 mm
01:19 PM 40.0°F4.4°C 7.1°F-13.8°C 25% 3.7 mph NW6.0 kmh NW 6.0 mph9.7 kmh 30.27 in1025.1 mb 0.00 in0.0 mm 0.00 in0.0 mm 0.00 in0.0 mm
01:14 PM 39.0°F3.9°C 6.2°F-14.3°C 25% 2.9 mph NW4.7 kmh NW 4.8 mph7.7 kmh 30.27 in1025.1 mb 0.00 in0.0 mm 0.00 in0.0 mm 0.00 in0.0 mm
01:09 PM 39.0°F3.9°C 6.2°F-14.3°C 25% 4.8 mph NW7.7 kmh NW 7.5 mph12.1 kmh 30.27 in1025.1 mb 0.00 in0.0 mm 0.00 in0.0 mm 0.00 in0.0 mm
01:04 PM 39.0°F3.9°C 6.2°F-14.3°C 25% 2.7 mph NW4.3 kmh NW 5.0 mph8.0 kmh 30.27 in1025.1 mb 0.00 in0.0 mm 0.00 in0.0 mm 0.00 in0.0 mm
12:59 PM 39.0°F3.9°C 6.2°F-14.3°C 25% 2.1 mph N3.4 kmh N 6.5 mph10.5 kmh 30.27 in1025.1 mb 0.00 in0.0 mm 0.00 in0.0 mm 0.00 in0.0 mm
12:54 PM 40.0°F4.4°C 6.2°F-14.3°C 24% 1.9 mph NNW3.1 kmh NNW 4.8 mph7.7 kmh 30.27 in1025.1 mb 0.00 in0.0 mm 0.00 in0.0 mm 0.00 in0.0 mm
12:49 PM 40.0°F4.4°C 6.2°F-14.3°C 24% 3.2 mph NNE5.1 kmh NNE 5.8 mph9.3 kmh 30.27 in1025.1 mb 0.00 in0.0 mm 0.00 in0.0 mm 0.00 in0.0 mm
12:44 PM 41.0°F5.0°C 6.1°F-14.4°C 23% 3.0 mph NNE4.8 kmh NNE 4.5 mph7.2 kmh 30.28 in1025.4 mb 0.00 in0.0 mm 0.00 in0.0 mm 0.00 in0.0 mm
12:39 PM 41.4°F5.2°C 6.4°F-14.2°C 23% 3.8 mph NW6.1 kmh NW 6.0 mph9.7 kmh 30.28 in1025.4 mb 0.00 in0.0 mm 0.00 in0.0 mm 0.00 in0.0 mm
12:34 PM 42.0°F5.6°C 6.0°F-14.4°C 22% 3.8 mph WNW6.1 kmh WNW 7.5 mph12.1 kmh 30.28 in1025.4 mb 0.00 in0.0 mm 0.00 in0.0 mm 0.00 in0.0 mm
12:29 PM 42.0°F5.6°C 6.0°F-14.4°C 22% 2.6 mph WNW4.2 kmh WNW 5.0 mph8.0 kmh 30.28 in1025.4 mb 0.00 in0.0 mm 0.00 in0.0 mm 0.00 in0.0 mm
12:24 PM 42.0°F5.6°C 6.9°F-13.9°C 23% 3.2 mph NNW5.1 kmh NNW 5.8 mph9.3 kmh 30.28 in1025.4 mb 0.00 in0.0 mm 0.00 in0.0 mm 0.00 in0.0 mm
12:19 PM 42.0°F5.6°C 6.9°F-13.9°C 23% 4.2 mph NNW6.8 kmh NNW 7.0 mph11.3 kmh 30.28 in1025.4 mb 0.00 in0.0 mm 0.00 in0.0 mm 0.00 in0.0 mm
12:14 PM 42.0°F5.6°C 7.9°F-13.4°C 24% 3.5 mph NW5.6 kmh NW 7.0 mph11.3 kmh 30.29 in1025.7 mb 0.00 in0.0 mm 0.00 in0.0 mm 0.00 in0.0 mm
12:09 PM 43.0°F6.1°C 8.7°F-12.9°C 24% 2.2 mph NNW3.5 kmh NNW 4.3 mph6.9 kmh 30.29 in1025.7 mb 0.00 in0.0 mm 0.00 in0.0 mm 0.00 in0.0 mm
12:04 PM 43.0°F6.1°C 8.7°F-12.9°C 24% 1.4 mph N2.3 kmh N 2.5 mph4.0 kmh 30.29 in1025.7 mb 0.00 in0.0 mm 0.00 in0.0 mm 0.00 in0.0 mm
11:59 AM 43.0°F6.1°C 8.7°F-12.9°C 24% 3.0 mph NW4.8 kmh NW 5.0 mph8.0 kmh 30.29 in1025.7 mb 0.00 in0.0 mm 0.00 in0.0 mm 0.00 in0.0 mm
11:54 AM 42.0°F5.6°C 7.9°F-13.4°C 24% 4.0 mph NW6.4 kmh NW 6.5 mph10.5 kmh 30.28 in1025.4 mb 0.00 in0.0 mm 0.00 in0.0 mm 0.00 in0.0 mm
11:49 AM 42.0°F5.6°C 7.9°F-13.4°C 24% 1.8 mph NNW2.9 kmh NNW 4.5 mph7.2 kmh 30.28 in1025.4 mb 0.00 in0.0 mm 0.00 in0.0 mm 0.00 in0.0 mm
11:44 AM 42.0°F5.6°C 8.8°F-12.9°C 25% 3.8 mph N6.1 kmh N 7.3 mph11.7 kmh 30.29 in1025.7 mb 0.00 in0.0 mm 0.00 in0.0 mm 0.00 in0.0 mm
11:39 AM 41.0°F5.0°C 8.8°F-12.9°C 26% 2.0 mph N3.2 kmh N 3.5 mph5.6 kmh 30.29 in1025.7 mb 0.00 in0.0 mm 0.00 in0.0 mm 0.00 in0.0 mm
11:34 AM 41.0°F5.0°C 8.8°F-12.9°C 26% 3.2 mph NW5.1 kmh NW 5.3 mph8.5 kmh 30.30 in1026.1 mb 0.00 in0.0 mm 0.00 in0.0 mm 0.00 in0.0 mm
11:29 AM 41.0°F5.0°C 8.8°F-12.9°C 26% 2.5 mph NNE4.0 kmh NNE 4.5 mph7.2 kmh 30.29 in1025.7 mb 0.00 in0.0 mm 0.00 in0.0 mm 0.00 in0.0 mm
11:24 AM 40.0°F4.4°C 8.8°F-12.9°C 27% 2.7 mph NW4.3 kmh NW 5.3 mph8.5 kmh 30.29 in1025.7 mb 0.00 in0.0 mm 0.00 in0.0 mm 0.00 in0.0 mm
11:19 AM 39.0°F3.9°C 7.1°F-13.8°C 26% 2.5 mph W4.0 kmh W 4.5 mph7.2 kmh 30.29 in1025.7 mb 0.00 in0.0 mm 0.00 in0.0 mm 0.00 in0.0 mm
11:14 AM 39.0°F3.9°C 7.9°F-13.4°C 27% 3.7 mph NW6.0 kmh NW 6.3 mph10.1 kmh 30.29 in1025.7 mb 0.00 in0.0 mm 0.00 in0.0 mm 0.00 in0.0 mm
11:09 AM 39.0°F3.9°C 7.9°F-13.4°C 27% 2.7 mph NE4.3 kmh NE 4.5 mph7.2 kmh 30.29 in1025.7 mb 0.00 in0.0 mm 0.00 in0.0 mm 0.00 in0.0 mm
11:04 AM 38.0°F3.3°C 7.0°F-13.9°C 27% 2.2 mph WNW3.5 kmh WNW 3.5 mph5.6 kmh 30.29 in1025.7 mb 0.00 in0.0 mm 0.00 in0.0 mm 0.00 in0.0 mm
10:59 AM 39.0°F3.9°C 8.7°F-12.9°C 28% 2.8 mph NE4.5 kmh NE 5.3 mph8.5 kmh 30.29 in1025.7 mb 0.00 in0.0 mm 0.00 in0.0 mm 0.00 in0.0 mm
10:54 AM 39.0°F3.9°C 8.7°F-12.9°C 28% 3.4 mph NE5.5 kmh NE 6.3 mph10.1 kmh 30.30 in1026.1 mb 0.00 in0.0 mm 0.00 in0.0 mm 0.00 in0.0 mm
10:49 AM 39.0°F3.9°C 9.5°F-12.5°C 29% 3.4 mph N5.5 kmh N 6.3 mph10.1 kmh 30.30 in1026.1 mb 0.00 in0.0 mm 0.00 in0.0 mm 0.00 in0.0 mm
10:44 AM 39.0°F3.9°C 9.5°F-12.5°C 29% 3.7 mph NW6.0 kmh NW 6.0 mph9.7 kmh 30.30 in1026.1 mb 0.00 in0.0 mm 0.00 in0.0 mm 0.00 in0.0 mm
10:39 AM 38.0°F3.3°C 10.1°F-12.2°C 31% 2.5 mph NE4.0 kmh NE 4.3 mph6.9 kmh 30.29 in1025.7 mb 0.00 in0.0 mm 0.00 in0.0 mm 0.00 in0.0 mm
10:34 AM 37.0°F2.8°C 9.2°F-12.7°C 31% 2.2 mph NNW3.5 kmh NNW 3.8 mph6.1 kmh 30.29 in1025.7 mb 0.00 in0.0 mm 0.00 in0.0 mm 0.00 in0.0 mm
10:29 AM 37.0°F2.8°C 9.2°F-12.7°C 31% 3.9 mph NW6.3 kmh NW 5.8 mph9.3 kmh 30.29 in1025.7 mb 0.00 in0.0 mm 0.00 in0.0 mm 0.00 in0.0 mm
10:24 AM 36.0°F2.2°C 9.0°F-12.8°C 32% 3.4 mph NNE5.5 kmh NNE 6.8 mph10.9 kmh 30.28 in1025.4 mb 0.00 in0.0 mm 0.00 in0.0 mm 0.00 in0.0 mm
10:19 AM 36.0°F2.2°C 9.7°F-12.4°C 33% 4.4 mph NNE7.1 kmh NNE 6.5 mph10.5 kmh 30.28 in1025.4 mb 0.00 in0.0 mm 0.00 in0.0 mm 0.00 in0.0 mm
10:14 AM 35.0°F1.7°C 10.1°F-12.2°C 35% 2.8 mph NNW4.5 kmh NNW 5.3 mph8.5 kmh 30.28 in1025.4 mb 0.00 in0.0 mm 0.00 in0.0 mm 0.00 in0.0 mm
10:09 AM 34.0°F1.1°C 9.9°F-12.3°C 36% 3.1 mph NNW5.0 kmh NNW 5.0 mph8.0 kmh 30.27 in1025.1 mb 0.00 in0.0 mm 0.00 in0.0 mm 0.00 in0.0 mm
10:04 AM 34.0°F1.1°C 9.9°F-12.3°C 36% 3.6 mph NNE5.8 kmh NNE 7.0 mph11.3 kmh 30.27 in1025.1 mb 0.00 in0.0 mm 0.00 in0.0 mm 0.00 in0.0 mm
09:59 AM 33.0°F0.6°C 9.0°F-12.8°C 36% 3.5 mph NW5.6 kmh NW 6.5 mph10.5 kmh 30.27 in1025.1 mb 0.00 in0.0 mm 0.00 in0.0 mm 0.00 in0.0 mm
09:54 AM 33.0°F0.6°C 9.6°F-12.4°C 37% 3.1 mph NNW5.0 kmh NNW 6.0 mph9.7 kmh 30.27 in1025.1 mb 0.00 in0.0 mm 0.00 in0.0 mm 0.00 in0.0 mm
09:49 AM 32.0°F0.0°C 9.3°F-12.6°C 38% 2.4 mph N3.9 kmh N 4.8 mph7.7 kmh 30.27 in1025.1 mb 0.00 in0.0 mm 0.00 in0.0 mm 0.00 in0.0 mm
09:44 AM 32.0°F0.0°C 9.3°F-12.6°C 38% 2.7 mph W4.3 kmh W 5.0 mph8.0 kmh 30.26 in1024.7 mb 0.00 in0.0 mm 0.00 in0.0 mm 0.00 in0.0 mm
09:39 AM 32.0°F0.0°C 9.9°F-12.3°C 39% 3.7 mph NNW6.0 kmh NNW 6.5 mph10.5 kmh 30.26 in1024.7 mb 0.00 in0.0 mm 0.00 in0.0 mm 0.00 in0.0 mm
09:34 AM 31.0°F-0.6°C 9.5°F-12.5°C 40% 3.5 mph NW5.6 kmh NW 6.5 mph10.5 kmh 30.26 in1024.7 mb 0.00 in0.0 mm 0.00 in0.0 mm 0.00 in0.0 mm
09:29 AM 31.0°F-0.6°C 10.1°F-12.2°C 41% 2.9 mph NNW4.7 kmh NNW 4.3 mph6.9 kmh 30.26 in1024.7 mb 0.00 in0.0 mm 0.00 in0.0 mm 0.00 in0.0 mm
09:24 AM 30.9°F-0.6°C 10.0°F-12.2°C 41% 4.4 mph NW7.1 kmh NW 8.3 mph13.4 kmh 30.26 in1024.7 mb 0.00 in0.0 mm 0.00 in0.0 mm 0.00 in0.0 mm
09:19 AM 31.0°F-0.6°C 10.6°F-11.9°C 42% 2.9 mph NNW4.7 kmh NNW 5.8 mph9.3 kmh 30.26 in1024.7 mb 0.00 in0.0 mm 0.00 in0.0 mm 0.00 in0.0 mm
09:14 AM 31.0°F-0.6°C 11.7°F-11.3°C 44% 2.8 mph NE4.5 kmh NE 5.5 mph8.9 kmh 30.26 in1024.7 mb 0.00 in0.0 mm 0.00 in0.0 mm 0.00 in0.0 mm
09:09 AM 31.0°F-0.6°C 12.7°F-10.7°C 46% 3.7 mph WNW6.0 kmh WNW 6.5 mph10.5 kmh 30.25 in1024.4 mb 0.00 in0.0 mm 0.00 in0.0 mm 0.00 in0.0 mm
09:04 AM 30.6°F-0.8°C 12.8°F-10.7°C 47% 2.8 mph NW4.5 kmh NW 5.0 mph8.0 kmh 30.25 in1024.4 mb 0.00 in0.0 mm 0.00 in0.0 mm 0.00 in0.0 mm
08:59 AM 30.0°F-1.1°C 12.7°F-10.7°C 48% 2.0 mph NNW3.2 kmh NNW 4.0 mph6.4 kmh 30.25 in1024.4 mb 0.00 in0.0 mm 0.00 in0.0 mm 0.00 in0.0 mm
08:54 AM 30.0°F-1.1°C 13.6°F-10.2°C 50% 3.7 mph NW6.0 kmh NW 6.3 mph10.1 kmh 30.25 in1024.4 mb 0.00 in0.0 mm 0.00 in0.0 mm 0.00 in0.0 mm
08:49 AM 29.0°F-1.7°C 14.5°F-9.7°C 54% 4.8 mph NE7.7 kmh NE 8.3 mph13.4 kmh 30.25 in1024.4 mb 0.00 in0.0 mm 0.00 in0.0 mm 0.00 in0.0 mm
08:44 AM 28.0°F-2.2°C 15.9°F-8.9°C 60% 3.3 mph NE5.3 kmh NE 4.5 mph7.2 kmh 30.24 in1024.0 mb 0.00 in0.0 mm 0.00 in0.0 mm 0.00 in0.0 mm
08:39 AM 26.0°F-3.3°C 16.9°F-8.4°C 68% 3.0 mph NNW4.8 kmh NNW 5.5 mph8.9 kmh 30.24 in1024.0 mb 0.00 in0.0 mm 0.00 in0.0 mm 0.00 in0.0 mm
08:34 AM 24.6°F-4.1°C 18.1°F-7.7°C 76% 2.4 mph NNE3.9 kmh NNE 3.8 mph6.1 kmh 30.24 in1024.0 mb 0.00 in0.0 mm 0.00 in0.0 mm 0.00 in0.0 mm
08:29 AM 23.0°F-5.0°C 18.3°F-7.6°C 82% 0.1 mph N0.2 kmh N 0.8 mph1.3 kmh 30.23 in1023.7 mb 0.00 in0.0 mm 0.00 in0.0 mm 0.00 in0.0 mm
08:24 AM 22.6°F-5.2°C 18.8°F-7.3°C 85% 0.5 mph N0.8 kmh N 2.3 mph3.7 kmh 30.23 in1023.7 mb 0.00 in0.0 mm 0.00 in0.0 mm 0.00 in0.0 mm
08:19 AM 22.0°F-5.6°C 18.5°F-7.5°C 86% 0.2 mph WSW0.3 kmh WSW 1.0 mph1.6 kmh 30.23 in1023.7 mb 0.00 in0.0 mm 0.00 in0.0 mm 0.00 in0.0 mm
08:14 AM 21.0°F-6.1°C 17.8°F-7.9°C 87% Calm Calm -- 30.22 in1023.4 mb 0.00 in0.0 mm 0.00 in0.0 mm 0.00 in0.0 mm
08:09 AM 20.6°F-6.3°C 17.4°F-8.1°C 87% Calm Calm -- 30.22 in1023.4 mb 0.00 in0.0 mm 0.00 in0.0 mm 0.00 in0.0 mm
08:04 AM 20.0°F-6.7°C 16.8°F-8.4°C 87% Calm Calm -- 30.22 in1023.4 mb 0.00 in0.0 mm 0.00 in0.0 mm 0.00 in0.0 mm
07:59 AM 20.0°F-6.7°C 16.8°F-8.4°C 87% Calm Calm -- 30.22 in1023.4 mb 0.00 in0.0 mm 0.00 in0.0 mm 0.00 in0.0 mm
07:54 AM 19.0°F-7.2°C 15.8°F-9.0°C 87% Calm Calm 0.3 mph0.5 kmh 30.22 in1023.4 mb 0.00 in0.0 mm 0.00 in0.0 mm 0.00 in0.0 mm
07:49 AM 19.0°F-7.2°C 15.8°F-9.0°C 87% Calm Calm -- 30.22 in1023.4 mb 0.00 in0.0 mm 0.00 in0.0 mm 0.00 in0.0 mm
07:44 AM 18.6°F-7.4°C 15.4°F-9.2°C 87% Calm Calm -- 30.21 in1023.0 mb 0.00 in0.0 mm 0.00 in0.0 mm 0.00 in0.0 mm
07:39 AM 18.0°F-7.8°C 14.8°F-9.6°C 87% Calm Calm -- 30.21 in1023.0 mb 0.00 in0.0 mm 0.00 in0.0 mm 0.00 in0.0 mm
07:34 AM 18.0°F-7.8°C 14.5°F-9.7°C 86% Calm Calm -- 30.21 in1023.0 mb 0.00 in0.0 mm 0.00 in0.0 mm 0.00 in0.0 mm
07:29 AM 18.0°F-7.8°C 14.5°F-9.7°C 86% Calm Calm -- 30.21 in1023.0 mb 0.00 in0.0 mm 0.00 in0.0 mm 0.00 in0.0 mm
07:24 AM 18.0°F-7.8°C 14.5°F-9.7°C 86% Calm Calm -- 30.20 in1022.7 mb 0.00 in0.0 mm 0.00 in0.0 mm 0.00 in0.0 mm
07:19 AM 18.0°F-7.8°C 14.5°F-9.7°C 86% Calm Calm -- 30.20 in1022.7 mb 0.00 in0.0 mm 0.00 in0.0 mm 0.00 in0.0 mm
07:14 AM 18.0°F-7.8°C 14.5°F-9.7°C 86% Calm Calm -- 30.20 in1022.7 mb 0.00 in0.0 mm 0.00 in0.0 mm 0.00 in0.0 mm
07:09 AM 18.0°F-7.8°C 14.5°F-9.7°C 86% Calm Calm -- 30.20 in1022.7 mb 0.00 in0.0 mm 0.00 in0.0 mm 0.00 in0.0 mm
07:04 AM 18.0°F-7.8°C 14.5°F-9.7°C 86% Calm Calm -- 30.20 in1022.7 mb 0.00 in0.0 mm 0.00 in0.0 mm 0.00 in0.0 mm
06:59 AM 18.0°F-7.8°C 14.5°F-9.7°C 86% Calm Calm -- 30.19 in1022.4 mb 0.00 in0.0 mm 0.00 in0.0 mm 0.00 in0.0 mm
06:54 AM 18.0°F-7.8°C 14.5°F-9.7°C 86% Calm Calm -- 30.18 in1022.0 mb 0.00 in0.0 mm 0.00 in0.0 mm 0.00 in0.0 mm
06:49 AM 18.0°F-7.8°C 14.8°F-9.6°C 87% Calm Calm -- 30.18 in1022.0 mb 0.00 in0.0 mm 0.00 in0.0 mm 0.00 in0.0 mm
06:44 AM 18.0°F-7.8°C 14.5°F-9.7°C 86% Calm Calm -- 30.18 in1022.0 mb 0.00 in0.0 mm 0.00 in0.0 mm 0.00 in0.0 mm
06:39 AM 18.0°F-7.8°C 14.5°F-9.7°C 86% Calm Calm -- 30.18 in1022.0 mb 0.00 in0.0 mm 0.00 in0.0 mm 0.00 in0.0 mm
06:34 AM 18.0°F-7.8°C 14.3°F-9.8°C 85% Calm Calm -- 30.18 in1022.0 mb 0.00 in0.0 mm 0.00 in0.0 mm 0.00 in0.0 mm
06:29 AM 18.0°F-7.8°C 14.3°F-9.8°C 85% Calm Calm 0.3 mph0.5 kmh 30.18 in1022.0 mb 0.00 in0.0 mm 0.00 in0.0 mm 0.00 in0.0 mm
06:24 AM 18.0°F-7.8°C 14.3°F-9.8°C 85% Calm Calm -- 30.18 in1022.0 mb 0.00 in0.0 mm 0.00 in0.0 mm 0.00 in0.0 mm
06:19 AM 18.0°F-7.8°C 14.0°F-10.0°C 84% Calm Calm -- 30.18 in1022.0 mb 0.00 in0.0 mm 0.00 in0.0 mm 0.00 in0.0 mm
06:14 AM 18.0°F-7.8°C 14.0°F-10.0°C 84% Calm Calm -- 30.18 in1022.0 mb 0.00 in0.0 mm 0.00 in0.0 mm 0.00 in0.0 mm
06:09 AM 18.0°F-7.8°C 14.0°F-10.0°C 84% Calm Calm -- 30.18 in1022.0 mb 0.00 in0.0 mm 0.00 in0.0 mm 0.00 in0.0 mm
06:04 AM 18.0°F-7.8°C 13.7°F-10.2°C 83% Calm Calm 0.3 mph0.5 kmh 30.18 in1022.0 mb 0.00 in0.0 mm 0.00 in0.0 mm 0.00 in0.0 mm
05:59 AM 19.0°F-7.2°C 14.7°F-9.6°C 83% Calm Calm -- 30.18 in1022.0 mb 0.00 in0.0 mm 0.00 in0.0 mm 0.00 in0.0 mm
05:54 AM 19.0°F-7.2°C 14.7°F-9.6°C 83% Calm Calm -- 30.18 in1022.0 mb 0.00 in0.0 mm 0.00 in0.0 mm 0.00 in0.0 mm
05:49 AM 19.0°F-7.2°C 14.7°F-9.6°C 83% Calm Calm -- 30.18 in1022.0 mb 0.00 in0.0 mm 0.00 in0.0 mm 0.00 in0.0 mm
05:44 AM 19.0°F-7.2°C 14.7°F-9.6°C 83% Calm Calm -- 30.18 in1022.0 mb 0.00 in0.0 mm 0.00 in0.0 mm 0.00 in0.0 mm
05:39 AM 19.0°F-7.2°C 14.7°F-9.6°C 83% Calm Calm -- 30.17 in1021.7 mb 0.00 in0.0 mm 0.00 in0.0 mm 0.00 in0.0 mm
05:34 AM 19.0°F-7.2°C 14.4°F-9.8°C 82% Calm Calm -- 30.17 in1021.7 mb 0.00 in0.0 mm 0.00 in0.0 mm 0.00 in0.0 mm
05:29 AM 19.0°F-7.2°C 14.4°F-9.8°C 82% 0.1 mph WSW0.2 kmh WSW 0.3 mph0.5 kmh 30.17 in1021.7 mb 0.00 in0.0 mm 0.00 in0.0 mm 0.00 in0.0 mm
05:24 AM 19.0°F-7.2°C 14.4°F-9.8°C 82% Calm Calm -- 30.16 in1021.3 mb 0.00 in0.0 mm 0.00 in0.0 mm 0.00 in0.0 mm
05:19 AM 19.0°F-7.2°C 14.4°F-9.8°C 82% Calm Calm -- 30.17 in1021.7 mb 0.00 in0.0 mm 0.00 in0.0 mm 0.00 in0.0 mm
05:14 AM 19.0°F-7.2°C 14.4°F-9.8°C 82% Calm Calm -- 30.16 in1021.3 mb 0.00 in0.0 mm 0.00 in0.0 mm 0.00 in0.0 mm
05:09 AM 19.0°F-7.2°C 14.4°F-9.8°C 82% Calm Calm -- 30.16 in1021.3 mb 0.00 in0.0 mm 0.00 in0.0 mm 0.00 in0.0 mm
05:04 AM 19.0°F-7.2°C 14.1°F-9.9°C 81% Calm Calm 0.3 mph0.5 kmh 30.16 in1021.3 mb 0.00 in0.0 mm 0.00 in0.0 mm 0.00 in0.0 mm
04:59 AM 20.0°F-6.7°C 14.8°F-9.6°C 80% Calm Calm -- 30.16 in1021.3 mb 0.00 in0.0 mm 0.00 in0.0 mm 0.00 in0.0 mm
04:54 AM 20.0°F-6.7°C 14.8°F-9.6°C 80% Calm Calm -- 30.15 in1021.0 mb 0.00 in0.0 mm 0.00 in0.0 mm 0.00 in0.0 mm
04:49 AM 20.0°F-6.7°C 14.8°F-9.6°C 80% Calm Calm -- 30.15 in1021.0 mb 0.00 in0.0 mm 0.00 in0.0 mm 0.00 in0.0 mm
04:44 AM 20.0°F-6.7°C 15.1°F-9.4°C 81% Calm Calm -- 30.15 in1021.0 mb 0.00 in0.0 mm 0.00 in0.0 mm 0.00 in0.0 mm
04:39 AM 20.0°F-6.7°C 15.1°F-9.4°C 81% Calm Calm -- 30.15 in1021.0 mb 0.00 in0.0 mm 0.00 in0.0 mm 0.00 in0.0 mm
04:34 AM 20.0°F-6.7°C 15.1°F-9.4°C 81% Calm Calm -- 30.15 in1021.0 mb 0.00 in0.0 mm 0.00 in0.0 mm 0.00 in0.0 mm
04:29 AM 20.0°F-6.7°C 14.8°F-9.6°C 80% Calm Calm -- 30.15 in1021.0 mb 0.00 in0.0 mm 0.00 in0.0 mm 0.00 in0.0 mm
04:24 AM 19.9°F-6.7°C 14.5°F-9.7°C 79% Calm Calm -- 30.15 in1021.0 mb 0.00 in0.0 mm 0.00 in0.0 mm 0.00 in0.0 mm
04:19 AM 20.0°F-6.7°C 14.8°F-9.6°C 80% Calm Calm -- 30.15 in1021.0 mb 0.00 in0.0 mm 0.00 in0.0 mm 0.00 in0.0 mm
04:14 AM 20.0°F-6.7°C 14.8°F-9.6°C 80% Calm Calm -- 30.15 in1021.0 mb 0.00 in0.0 mm 0.00 in0.0 mm 0.00 in0.0 mm
04:09 AM 20.0°F-6.7°C 14.8°F-9.6°C 80% Calm Calm -- 30.15 in1021.0 mb 0.00 in0.0 mm 0.00 in0.0 mm 0.00 in0.0 mm
04:04 AM 20.0°F-6.7°C 14.6°F-9.7°C 79% Calm Calm -- 30.14 in1020.7 mb 0.00 in0.0 mm 0.00 in0.0 mm 0.00 in0.0 mm
03:59 AM 20.0°F-6.7°C 14.6°F-9.7°C 79% Calm Calm -- 30.14 in1020.7 mb 0.00 in0.0 mm 0.00 in0.0 mm 0.00 in0.0 mm
03:54 AM 20.0°F-6.7°C 14.3°F-9.8°C 78% Calm Calm -- 30.14 in1020.7 mb 0.00 in0.0 mm 0.00 in0.0 mm 0.00 in0.0 mm
03:49 AM 20.0°F-6.7°C 14.0°F-10.0°C 77% Calm Calm -- 30.14 in1020.7 mb 0.00 in0.0 mm 0.00 in0.0 mm 0.00 in0.0 mm
03:44 AM 20.0°F-6.7°C 14.0°F-10.0°C 77% Calm Calm -- 30.14 in1020.7 mb 0.00 in0.0 mm 0.00 in0.0 mm 0.00 in0.0 mm
03:39 AM 21.0°F-6.1°C 14.9°F-9.5°C 77% Calm Calm -- 30.14 in1020.7 mb 0.00 in0.0 mm 0.00 in0.0 mm 0.00 in0.0 mm
03:34 AM 21.0°F-6.1°C 14.9°F-9.5°C 77% Calm Calm -- 30.14 in1020.7 mb 0.00 in0.0 mm 0.00 in0.0 mm 0.00 in0.0 mm
03:29 AM 21.0°F-6.1°C 14.9°F-9.5°C 77% Calm Calm -- 30.14 in1020.7 mb 0.00 in0.0 mm 0.00 in0.0 mm 0.00 in0.0 mm
03:24 AM 21.0°F-6.1°C 14.9°F-9.5°C 77% Calm Calm -- 30.15 in1021.0 mb 0.00 in0.0 mm 0.00 in0.0 mm 0.00 in0.0 mm
03:19 AM 21.0°F-6.1°C 14.6°F-9.7°C 76% Calm Calm -- 30.14 in1020.7 mb 0.00 in0.0 mm 0.00 in0.0 mm 0.00 in0.0 mm
03:14 AM 21.0°F-6.1°C 14.6°F-9.7°C 76% Calm Calm -- 30.14 in1020.7 mb 0.00 in0.0 mm 0.00 in0.0 mm 0.00 in0.0 mm
03:09 AM 21.9°F-5.6°C 14.9°F-9.5°C 74% Calm Calm -- 30.14 in1020.7 mb 0.00 in0.0 mm 0.00 in0.0 mm 0.00 in0.0 mm
03:04 AM 22.0°F-5.6°C 15.3°F-9.3°C 75% Calm Calm -- 30.14 in1020.7 mb 0.00 in0.0 mm 0.00 in0.0 mm 0.00 in0.0 mm
02:59 AM 22.0°F-5.6°C 15.0°F-9.4°C 74% Calm Calm -- 30.15 in1021.0 mb 0.00 in0.0 mm 0.00 in0.0 mm 0.00 in0.0 mm
02:54 AM 22.0°F-5.6°C 15.0°F-9.4°C 74% Calm Calm -- 30.14 in1020.7 mb 0.00 in0.0 mm 0.00 in0.0 mm 0.00 in0.0 mm
02:49 AM 23.0°F-5.0°C 16.0°F-8.9°C 74% Calm Calm -- 30.14 in1020.7 mb 0.00 in0.0 mm 0.00 in0.0 mm 0.00 in0.0 mm
02:44 AM 23.0°F-5.0°C 16.0°F-8.9°C 74% Calm Calm -- 30.14 in1020.7 mb 0.00 in0.0 mm 0.00 in0.0 mm 0.00 in0.0 mm
02:39 AM 23.0°F-5.0°C 16.0°F-8.9°C 74% Calm Calm -- 30.14 in1020.7 mb 0.00 in0.0 mm 0.00 in0.0 mm 0.00 in0.0 mm
02:34 AM 23.0°F-5.0°C 16.0°F-8.9°C 74% Calm Calm -- 30.14 in1020.7 mb 0.00 in0.0 mm 0.00 in0.0 mm 0.00 in0.0 mm
02:29 AM 22.0°F-5.6°C 15.3°F-9.3°C 75% Calm Calm -- 30.14 in1020.7 mb 0.00 in0.0 mm 0.00 in0.0 mm 0.00 in0.0 mm
02:24 AM 22.0°F-5.6°C 15.0°F-9.4°C 74% Calm Calm -- 30.14 in1020.7 mb 0.00 in0.0 mm 0.00 in0.0 mm 0.00 in0.0 mm
02:19 AM 22.0°F-5.6°C 14.7°F-9.6°C 73% Calm Calm -- 30.14 in1020.7 mb 0.00 in0.0 mm 0.00 in0.0 mm 0.00 in0.0 mm
02:14 AM 22.0°F-5.6°C 14.7°F-9.6°C 73% Calm Calm -- 30.13 in1020.3 mb 0.00 in0.0 mm 0.00 in0.0 mm 0.00 in0.0 mm
02:09 AM 23.0°F-5.0°C 15.3°F-9.3°C 72% Calm Calm -- 30.13 in1020.3 mb 0.00 in0.0 mm 0.00 in0.0 mm 0.00 in0.0 mm
02:04 AM 23.0°F-5.0°C 15.0°F-9.4°C 71% Calm Calm -- 30.13 in1020.3 mb 0.00 in0.0 mm 0.00 in0.0 mm 0.00 in0.0 mm
01:59 AM 23.0°F-5.0°C 14.7°F-9.6°C 70% Calm Calm -- 30.13 in1020.3 mb 0.00 in0.0 mm 0.00 in0.0 mm 0.00 in0.0 mm
01:54 AM 22.9°F-5.1°C 14.3°F-9.8°C 69% Calm Calm -- 30.13 in1020.3 mb 0.00 in0.0 mm 0.00 in0.0 mm 0.00 in0.0 mm
01:49 AM 24.0°F-4.4°C 15.3°F-9.3°C 69% Calm Calm -- 30.13 in1020.3 mb 0.00 in0.0 mm 0.00 in0.0 mm 0.00 in0.0 mm
01:44 AM 24.0°F-4.4°C 15.3°F-9.3°C 69% 1.0 mph WSW1.6 kmh WSW 1.8 mph2.9 kmh 30.13 in1020.3 mb 0.00 in0.0 mm 0.00 in0.0 mm 0.00 in0.0 mm
01:39 AM 24.0°F-4.4°C 15.3°F-9.3°C 69% Calm Calm 0.5 mph0.8 kmh 30.13 in1020.3 mb 0.00 in0.0 mm 0.00 in0.0 mm 0.00 in0.0 mm
01:34 AM 24.0°F-4.4°C 15.0°F-9.4°C 68% Calm Calm 0.3 mph0.5 kmh 30.13 in1020.3 mb 0.00 in0.0 mm 0.00 in0.0 mm 0.00 in0.0 mm
01:29 AM 24.0°F-4.4°C 15.0°F-9.4°C 68% Calm Calm -- 30.13 in1020.3 mb 0.00 in0.0 mm 0.00 in0.0 mm 0.00 in0.0 mm
01:24 AM 24.0°F-4.4°C 15.0°F-9.4°C 68% Calm Calm -- 30.12 in1020.0 mb 0.00 in0.0 mm 0.00 in0.0 mm 0.00 in0.0 mm
01:19 AM 24.0°F-4.4°C 15.3°F-9.3°C 69% Calm Calm -- 30.12 in1020.0 mb 0.00 in0.0 mm 0.00 in0.0 mm 0.00 in0.0 mm
01:14 AM 24.2°F-4.3°C 15.9°F-8.9°C 70% Calm Calm -- 30.12 in1020.0 mb 0.00 in0.0 mm 0.00 in0.0 mm 0.00 in0.0 mm
01:09 AM 25.0°F-3.9°C 16.6°F-8.6°C 70% Calm Calm 0.3 mph0.5 kmh 30.11 in1019.6 mb 0.00 in0.0 mm 0.00 in0.0 mm 0.00 in0.0 mm
01:04 AM 25.0°F-3.9°C 16.3°F-8.7°C 69% Calm Calm -- 30.11 in1019.6 mb 0.00 in0.0 mm 0.00 in0.0 mm 0.00 in0.0 mm
12:59 AM 25.0°F-3.9°C 16.0°F-8.9°C 68% Calm Calm -- 30.11 in1019.6 mb 0.00 in0.0 mm 0.00 in0.0 mm 0.00 in0.0 mm
12:54 AM 25.0°F-3.9°C 15.6°F-9.1°C 67% Calm Calm -- 30.11 in1019.6 mb 0.00 in0.0 mm 0.00 in0.0 mm 0.00 in0.0 mm
12:49 AM 26.0°F-3.3°C 16.6°F-8.6°C 67% Calm Calm -- 30.11 in1019.6 mb 0.00 in0.0 mm 0.00 in0.0 mm 0.00 in0.0 mm
12:44 AM 26.0°F-3.3°C 16.2°F-8.8°C 66% Calm Calm -- 30.11 in1019.6 mb 0.00 in0.0 mm 0.00 in0.0 mm 0.00 in0.0 mm
12:39 AM 26.0°F-3.3°C 15.9°F-8.9°C 65% Calm Calm -- 30.10 in1019.3 mb 0.00 in0.0 mm 0.00 in0.0 mm 0.00 in0.0 mm
12:34 AM 26.2°F-3.2°C 15.7°F-9.1°C 64% Calm Calm -- 30.10 in1019.3 mb 0.00 in0.0 mm 0.00 in0.0 mm 0.00 in0.0 mm
12:29 AM 27.0°F-2.8°C 16.5°F-8.6°C 64% 0.3 mph WSW0.5 kmh WSW 1.0 mph1.6 kmh 30.09 in1019.0 mb 0.00 in0.0 mm 0.00 in0.0 mm 0.00 in0.0 mm
12:24 AM 27.0°F-2.8°C 16.5°F-8.6°C 64% 0.6 mph WSW1.0 kmh WSW 1.3 mph2.1 kmh 30.09 in1019.0 mb 0.00 in0.0 mm 0.00 in0.0 mm 0.00 in0.0 mm
12:19 AM 27.0°F-2.8°C 16.5°F-8.6°C 64% Calm Calm -- 30.09 in1019.0 mb 0.00 in0.0 mm 0.00 in0.0 mm 0.00 in0.0 mm
12:14 AM 27.0°F-2.8°C 17.2°F-8.2°C 66% Calm Calm -- 30.09 in1019.0 mb 0.00 in0.0 mm 0.00 in0.0 mm 0.00 in0.0 mm
12:09 AM 26.0°F-3.3°C 16.9°F-8.4°C 68% Calm Calm -- 30.09 in1019.0 mb 0.00 in0.0 mm 0.00 in0.0 mm 0.00 in0.0 mm
12:04 AM 25.9°F-3.4°C 17.2°F-8.2°C 69% Calm Calm -- 30.09 in1019.0 mb 0.00 in0.0 mm 0.00 in0.0 mm 0.00 in0.0 mm